sensor_id;sensor_type;location;lat;lon;timestamp;pressure;altitude;pressure_sealevel;temperature;humidity
70521;BME280;58442;52.716;23.560;2023-04-25T00:00:45;100175.55;;;11.41;52.67
70521;BME280;58442;52.716;23.560;2023-04-25T00:02:51;100172.76;;;11.37;52.82
70521;BME280;58442;52.716;23.560;2023-04-25T00:04:53;100178.95;;;11.34;52.91
70521;BME280;58442;52.716;23.560;2023-04-25T00:06:59;100180.03;;;11.30;53.05
70521;BME280;58442;52.716;23.560;2023-04-25T00:09:03;100162.07;;;11.25;53.19
70521;BME280;58442;52.716;23.560;2023-04-25T00:11:10;100173.29;;;11.20;53.38
70521;BME280;58442;52.716;23.560;2023-04-25T00:13:12;100172.06;;;11.17;53.54
70521;BME280;58442;52.716;23.560;2023-04-25T00:15:15;100177.09;;;11.15;53.70
70521;BME280;58442;52.716;23.560;2023-04-25T00:17:17;100166.59;;;11.14;53.67
70521;BME280;58442;52.716;23.560;2023-04-25T00:19:20;100166.52;;;11.10;53.91
70521;BME280;58442;52.716;23.560;2023-04-25T00:21:22;100155.98;;;11.05;54.03
70521;BME280;58442;52.716;23.560;2023-04-25T00:23:26;100162.53;;;11.04;54.02
70521;BME280;58442;52.716;23.560;2023-04-25T00:25:32;100163.27;;;11.01;54.08
70521;BME280;58442;52.716;23.560;2023-04-25T00:27:33;100164.36;;;10.96;54.29
70521;BME280;58442;52.716;23.560;2023-04-25T00:29:35;100164.31;;;10.93;54.39
70521;BME280;58442;52.716;23.560;2023-04-25T00:31:37;100157.65;;;10.90;54.46
70521;BME280;58442;52.716;23.560;2023-04-25T00:33:46;100155.67;;;10.87;54.55
70521;BME280;58442;52.716;23.560;2023-04-25T00:35:47;100153.69;;;10.84;54.73
70521;BME280;58442;52.716;23.560;2023-04-25T00:37:50;100157.12;;;10.81;54.88
70521;BME280;58442;52.716;23.560;2023-04-25T00:39:51;100155.54;;;10.80;54.88
70521;BME280;58442;52.716;23.560;2023-04-25T00:42:00;100153.55;;;10.77;54.92
70521;BME280;58442;52.716;23.560;2023-04-25T00:44:03;100151.20;;;10.76;55.08
70521;BME280;58442;52.716;23.560;2023-04-25T00:46:05;100146.50;;;10.73;55.08
70521;BME280;58442;52.716;23.560;2023-04-25T00:48:07;100146.86;;;10.71;55.20
70521;BME280;58442;52.716;23.560;2023-04-25T00:50:16;100150.70;;;10.70;55.27
70521;BME280;58442;52.716;23.560;2023-04-25T00:52:17;100148.35;;;10.68;55.51
70521;BME280;58442;52.716;23.560;2023-04-25T00:54:19;100146.00;;;10.67;55.59
70521;BME280;58442;52.716;23.560;2023-04-25T00:56:21;100156.88;;;10.67;55.60
70521;BME280;58442;52.716;23.560;2023-04-25T00:58:31;100159.18;;;10.65;55.66
70521;BME280;58442;52.716;23.560;2023-04-25T01:00:34;100164.61;;;10.65;55.84
70521;BME280;58442;52.716;23.560;2023-04-25T01:02:36;100154.09;;;10.63;55.94
70521;BME280;58442;52.716;23.560;2023-04-25T01:04:39;100155.23;;;10.62;55.94
70521;BME280;58442;52.716;23.560;2023-04-25T01:06:45;100153.67;;;10.61;56.00
70521;BME280;58442;52.716;23.560;2023-04-25T01:08:47;100147.03;;;10.59;56.20
70521;BME280;58442;52.716;23.560;2023-04-25T01:10:49;100152.83;;;10.57;56.40
70521;BME280;58442;52.716;23.560;2023-04-25T01:12:50;100157.83;;;10.55;56.39
70521;BME280;58442;52.716;23.560;2023-04-25T01:15:00;100153.55;;;10.54;56.44
70521;BME280;58442;52.716;23.560;2023-04-25T01:17:02;100145.02;;;10.56;56.62
70521;BME280;58442;52.716;23.560;2023-04-25T01:19:10;100148.52;;;10.56;56.67
70521;BME280;58442;52.716;23.560;2023-04-25T01:21:15;100144.23;;;10.55;56.71
70521;BME280;58442;52.716;23.560;2023-04-25T01:23:18;100149.67;;;10.55;56.75
70521;BME280;58442;52.716;23.560;2023-04-25T01:25:21;100146.54;;;10.53;56.96
70521;BME280;58442;52.716;23.560;2023-04-25T01:27:24;100139.13;;;10.50;57.11
70521;BME280;58442;52.716;23.560;2023-04-25T01:29:28;100140.24;;;10.49;57.18
70521;BME280;58442;52.716;23.560;2023-04-25T01:31:31;100134.02;;;10.49;57.21
70521;BME280;58442;52.716;23.560;2023-04-25T01:33:33;100137.90;;;10.48;57.39
70521;BME280;58442;52.716;23.560;2023-04-25T01:35:35;100146.41;;;10.46;57.45
70521;BME280;58442;52.716;23.560;2023-04-25T01:37:38;100141.76;;;10.47;57.50
70521;BME280;58442;52.716;23.560;2023-04-25T01:39:45;100134.76;;;10.46;57.53
70521;BME280;58442;52.716;23.560;2023-04-25T01:41:47;100132.41;;;10.44;57.67
70521;BME280;58442;52.716;23.560;2023-04-25T01:43:49;100131.96;;;10.42;57.77
70521;BME280;58442;52.716;23.560;2023-04-25T01:45:51;100130.03;;;10.43;57.76
70521;BME280;58442;52.716;23.560;2023-04-25T01:48:00;100129.25;;;10.42;57.79
70521;BME280;58442;52.716;23.560;2023-04-25T01:50:03;100123.03;;;10.41;57.91
70521;BME280;58442;52.716;23.560;2023-04-25T01:52:05;100119.53;;;10.41;57.93
70521;BME280;58442;52.716;23.560;2023-04-25T01:54:08;100120.69;;;10.40;57.96
70521;BME280;58442;52.716;23.560;2023-04-25T01:56:14;100119.05;;;10.35;58.04
70521;BME280;58442;52.716;23.560;2023-04-25T01:58:16;100123.27;;;10.33;58.24
70521;BME280;58442;52.716;23.560;2023-04-25T02:00:18;100113.14;;;10.30;58.37
70521;BME280;58442;52.716;23.560;2023-04-25T02:02:20;100114.63;;;10.27;58.37
70521;BME280;58442;52.716;23.560;2023-04-25T02:04:30;100111.09;;;10.23;58.44
70521;BME280;58442;52.716;23.560;2023-04-25T02:06:32;100117.60;;;10.22;58.54
70521;BME280;58442;52.716;23.560;2023-04-25T02:08:34;100113.32;;;10.21;58.58
70521;BME280;58442;52.716;23.560;2023-04-25T02:10:36;100108.26;;;10.20;58.58
70521;BME280;58442;52.716;23.560;2023-04-25T02:12:44;100107.38;;;10.15;58.67
70521;BME280;58442;52.716;23.560;2023-04-25T02:14:46;100109.69;;;10.13;58.76
70521;BME280;58442;52.716;23.560;2023-04-25T02:16:48;100110.84;;;10.12;58.79
70521;BME280;58442;52.716;23.560;2023-04-25T02:18:51;100115.07;;;10.10;58.77
70521;BME280;58442;52.716;23.560;2023-04-25T02:21:00;100106.78;;;10.03;58.87
70521;BME280;58442;52.716;23.560;2023-04-25T02:23:03;100113.70;;;10.00;59.05
70521;BME280;58442;52.716;23.560;2023-04-25T02:25:05;100109.00;;;9.97;59.07
70521;BME280;58442;52.716;23.560;2023-04-25T02:27:07;100110.48;;;9.95;59.10
70521;BME280;58442;52.716;23.560;2023-04-25T02:29:14;100112.72;;;9.89;59.15
70521;BME280;58442;52.716;23.560;2023-04-25T02:31:16;100112.27;;;9.87;59.25
70521;BME280;58442;52.716;23.560;2023-04-25T02:33:18;100107.94;;;9.82;59.30
70521;BME280;58442;52.716;23.560;2023-04-25T02:35:21;100107.07;;;9.78;59.41
70521;BME280;58442;52.716;23.560;2023-04-25T02:37:30;100104.63;;;9.73;59.49
70521;BME280;58442;52.716;23.560;2023-04-25T02:39:33;100099.94;;;9.70;59.62
70521;BME280;58442;52.716;23.560;2023-04-25T02:41:34;100098.28;;;9.66;59.66
70521;BME280;58442;52.716;23.560;2023-04-25T02:43:36;100099.79;;;9.63;59.62
70521;BME280;58442;52.716;23.560;2023-04-25T02:45:44;100096.21;;;9.59;59.66
70521;BME280;58442;52.716;23.560;2023-04-25T02:47:46;100096.51;;;9.54;59.83
70521;BME280;58442;52.716;23.560;2023-04-25T02:49:48;100096.05;;;9.52;60.01
70521;BME280;58442;52.716;23.560;2023-04-25T02:51:50;100100.18;;;9.46;60.03
70521;BME280;58442;52.716;23.560;2023-04-25T02:53:59;100091.57;;;9.40;60.16
70521;BME280;58442;52.716;23.560;2023-04-25T02:56:01;100099.60;;;9.37;60.35
70521;BME280;58442;52.716;23.560;2023-04-25T02:58:03;100089.03;;;9.31;60.54
70521;BME280;58442;52.716;23.560;2023-04-25T03:00:06;100089.33;;;9.26;60.60
70521;BME280;58442;52.716;23.560;2023-04-25T03:02:14;100093.52;;;9.24;60.71
70521;BME280;58442;52.716;23.560;2023-04-25T03:04:15;100088.46;;;9.22;60.84
70521;BME280;58442;52.716;23.560;2023-04-25T03:06:17;100079.90;;;9.20;60.92
70521;BME280;58442;52.716;23.560;2023-04-25T03:08:19;100090.75;;;9.20;60.90
70521;BME280;58442;52.716;23.560;2023-04-25T03:10:29;100084.53;;;9.20;60.88
70521;BME280;58442;52.716;23.560;2023-04-25T03:12:31;100087.93;;;9.17;61.03
70521;BME280;58442;52.716;23.560;2023-04-25T03:14:33;100089.80;;;9.13;61.16
70521;BME280;58442;52.716;23.560;2023-04-25T03:16:34;100078.87;;;9.09;61.22
70521;BME280;58442;52.716;23.560;2023-04-25T03:18:46;100080.01;;;9.08;61.31
70521;BME280;58442;52.716;23.560;2023-04-25T03:20:48;100085.42;;;9.08;61.40
70521;BME280;58442;52.716;23.560;2023-04-25T03:22:51;100074.58;;;9.08;61.46
70521;BME280;58442;52.716;23.560;2023-04-25T03:24:53;100081.16;;;9.07;61.48
70521;BME280;58442;52.716;23.560;2023-04-25T03:26:58;100077.98;;;9.05;61.49
70521;BME280;58442;52.716;23.560;2023-04-25T03:29:01;100068.29;;;9.04;61.62
70521;BME280;58442;52.716;23.560;2023-04-25T03:31:03;100072.92;;;9.03;61.63
70521;BME280;58442;52.716;23.560;2023-04-25T03:33:05;100079.91;;;9.04;61.62
70521;BME280;58442;52.716;23.560;2023-04-25T03:35:13;100073.70;;;9.04;61.62
70521;BME280;58442;52.716;23.560;2023-04-25T03:37:16;100076.77;;;9.02;61.75
70521;BME280;58442;52.716;23.560;2023-04-25T03:39:18;100069.79;;;9.01;61.75
70521;BME280;58442;52.716;23.560;2023-04-25T03:41:19;100075.57;;;9.00;61.93
70521;BME280;58442;52.716;23.560;2023-04-25T03:43:28;100071.72;;;9.01;61.84
70521;BME280;58442;52.716;23.560;2023-04-25T03:45:31;100072.86;;;9.00;61.99
70521;BME280;58442;52.716;23.560;2023-04-25T03:47:33;100080.54;;;8.98;62.10
70521;BME280;58442;52.716;23.560;2023-04-25T03:49:35;100080.11;;;8.96;62.18
70521;BME280;58442;52.716;23.560;2023-04-25T03:51:43;100082.82;;;8.96;62.20
70521;BME280;58442;52.716;23.560;2023-04-25T03:53:45;100082.82;;;8.96;62.34
70521;BME280;58442;52.716;23.560;2023-04-25T03:55:47;100083.17;;;8.94;62.40
70521;BME280;58442;52.716;23.560;2023-04-25T03:57:49;100086.67;;;8.95;62.45
70521;BME280;58442;52.716;23.560;2023-04-25T03:59:58;100086.67;;;8.95;62.53
70521;BME280;58442;52.716;23.560;2023-04-25T04:02:00;100082.02;;;8.95;62.72
70521;BME280;58442;52.716;23.560;2023-04-25T04:04:02;100090.95;;;8.96;62.76
70521;BME280;58442;52.716;23.560;2023-04-25T04:06:04;100088.24;;;8.96;62.80
70521;BME280;58442;52.716;23.560;2023-04-25T04:08:13;100092.52;;;8.97;62.91
70521;BME280;58442;52.716;23.560;2023-04-25T04:10:15;100094.88;;;8.98;63.03
70521;BME280;58442;52.716;23.560;2023-04-25T04:12:16;100091.05;;;8.99;63.03
70521;BME280;58442;52.716;23.560;2023-04-25T04:14:18;100087.98;;;9.01;63.02
70521;BME280;58442;52.716;23.560;2023-04-25T04:16:28;100095.74;;;9.02;63.09
70521;BME280;58442;52.716;23.560;2023-04-25T04:18:30;100088.83;;;9.05;63.28
70521;BME280;58442;52.716;23.560;2023-04-25T04:20:33;100092.31;;;9.05;63.29
70521;BME280;58442;52.716;23.560;2023-04-25T04:22:35;100095.48;;;9.08;63.37
70521;BME280;58442;52.716;23.560;2023-04-25T04:24:43;100097.05;;;9.09;63.43
70521;BME280;58442;52.716;23.560;2023-04-25T04:26:50;100102.55;;;9.12;63.55
70521;BME280;58442;52.716;23.560;2023-04-25T04:28:54;100103.42;;;9.16;63.60
70521;BME280;58442;52.716;23.560;2023-04-25T04:30:56;100096.16;;;9.20;63.55
70521;BME280;58442;52.716;23.560;2023-04-25T04:32:59;100093.16;;;9.25;63.50
70521;BME280;58442;52.716;23.560;2023-04-25T04:35:03;100098.67;;;9.29;63.62
70521;BME280;58442;52.716;23.560;2023-04-25T04:37:05;100097.95;;;9.32;63.63
70521;BME280;58442;52.716;23.560;2023-04-25T04:39:07;100095.33;;;9.36;63.65
70521;BME280;58442;52.716;23.560;2023-04-25T04:41:13;100085.33;;;9.40;63.61
70521;BME280;58442;52.716;23.560;2023-04-25T04:43:14;100102.20;;;9.49;63.64
70521;BME280;58442;52.716;23.560;2023-04-25T04:45:19;100096.93;;;9.56;63.59
70521;BME280;58442;52.716;23.560;2023-04-25T04:47:24;100094.37;;;9.63;63.51
70521;BME280;58442;52.716;23.560;2023-04-25T04:49:32;100093.72;;;9.70;63.49
70521;BME280;58442;52.716;23.560;2023-04-25T04:51:33;100092.71;;;9.78;63.50
70521;BME280;58442;52.716;23.560;2023-04-25T04:53:36;100094.06;;;9.87;63.45
70521;BME280;58442;52.716;23.560;2023-04-25T04:55:38;100092.63;;;9.94;63.47
70521;BME280;58442;52.716;23.560;2023-04-25T04:57:43;100090.84;;;10.01;63.45
70521;BME280;58442;52.716;23.560;2023-04-25T04:59:44;100087.84;;;10.06;63.48
70521;BME280;58442;52.716;23.560;2023-04-25T05:01:47;100081.05;;;10.16;63.47
70521;BME280;58442;52.716;23.560;2023-04-25T05:03:49;100069.87;;;10.21;63.40
70521;BME280;58442;52.716;23.560;2023-04-25T05:05:57;100078.16;;;10.28;63.37
70521;BME280;58442;52.716;23.560;2023-04-25T05:07:59;100075.16;;;10.33;63.40
70521;BME280;58442;52.716;23.560;2023-04-25T05:10:01;100068.66;;;10.38;63.34
70521;BME280;58442;52.716;23.560;2023-04-25T05:12:06;100071.86;;;10.44;63.23
70521;BME280;58442;52.716;23.560;2023-04-25T05:14:12;100071.54;;;10.49;63.18
70521;BME280;58442;52.716;23.560;2023-04-25T05:16:14;100074.33;;;10.52;63.22
70521;BME280;58442;52.716;23.560;2023-04-25T05:18:16;100075.97;;;10.57;63.17
70521;BME280;58442;52.716;23.560;2023-04-25T05:20:17;100076.79;;;10.61;63.11
70521;BME280;58442;52.716;23.560;2023-04-25T05:22:29;100081.94;;;10.66;63.13
70521;BME280;58442;52.716;23.560;2023-04-25T05:24:31;100078.55;;;10.73;63.09
70521;BME280;58442;52.716;23.560;2023-04-25T05:26:33;100080.22;;;10.81;63.06
70521;BME280;58442;52.716;23.560;2023-04-25T05:28:36;100083.05;;;10.88;63.03
70521;BME280;58442;52.716;23.560;2023-04-25T05:30:42;100078.50;;;10.95;62.91
70521;BME280;58442;52.716;23.560;2023-04-25T05:32:43;100086.76;;;11.03;62.87
70521;BME280;58442;52.716;23.560;2023-04-25T05:34:45;100095.02;;;11.10;62.79
70521;BME280;58442;52.716;23.560;2023-04-25T05:36:47;100093.94;;;11.14;62.73
70521;BME280;58442;52.716;23.560;2023-04-25T05:38:57;100093.26;;;11.21;62.64
70521;BME280;58442;52.716;23.560;2023-04-25T05:40:59;100087.13;;;11.28;62.63
70521;BME280;58442;52.716;23.560;2023-04-25T05:43:01;100084.89;;;11.33;62.53
70521;BME280;58442;52.716;23.560;2023-04-25T05:45:03;100083.41;;;11.39;62.42
70521;BME280;58442;52.716;23.560;2023-04-25T05:47:12;100087.35;;;11.45;62.32
70521;BME280;58442;52.716;23.560;2023-04-25T05:49:13;100086.66;;;11.52;62.24
70521;BME280;58442;52.716;23.560;2023-04-25T05:51:15;100084.81;;;11.60;62.11
70521;BME280;58442;52.716;23.560;2023-04-25T05:53:20;100090.00;;;11.68;62.03
70521;BME280;58442;52.716;23.560;2023-04-25T05:55:27;100083.86;;;11.75;61.91
70521;BME280;58442;52.716;23.560;2023-04-25T05:57:28;100087.85;;;11.81;61.90
70521;BME280;58442;52.716;23.560;2023-04-25T05:59:30;100091.81;;;11.87;61.86
70521;BME280;58442;52.716;23.560;2023-04-25T06:01:32;100081.35;;;11.93;61.77
70521;BME280;58442;52.716;23.560;2023-04-25T06:03:41;100086.09;;;11.99;61.72
70521;BME280;58442;52.716;23.560;2023-04-25T06:05:47;100087.33;;;12.05;61.68
70521;BME280;58442;52.716;23.560;2023-04-25T06:07:48;100085.84;;;12.12;61.61
70521;BME280;58442;52.716;23.560;2023-04-25T06:09:50;100079.69;;;12.18;61.53
70521;BME280;58442;52.716;23.560;2023-04-25T06:11:56;100078.98;;;12.25;61.40
70521;BME280;58442;52.716;23.560;2023-04-25T06:13:58;100075.53;;;12.31;61.21
70521;BME280;58442;52.716;23.560;2023-04-25T06:15:59;100077.54;;;12.38;61.40
70521;BME280;58442;52.716;23.560;2023-04-25T06:18:01;100071.77;;;12.47;61.17
70521;BME280;58442;52.716;23.560;2023-04-25T06:20:11;100072.62;;;12.54;61.10
70521;BME280;58442;52.716;23.560;2023-04-25T06:22:13;100074.61;;;12.61;61.11
70521;BME280;58442;52.716;23.560;2023-04-25T06:24:15;100077.04;;;12.70;61.02
70521;BME280;58442;52.716;23.560;2023-04-25T06:26:16;100074.77;;;12.79;60.95
70521;BME280;58442;52.716;23.560;2023-04-25T06:28:26;100076.78;;;12.89;60.80
70521;BME280;58442;52.716;23.560;2023-04-25T06:30:28;100067.90;;;12.99;60.74
70521;BME280;58442;52.716;23.560;2023-04-25T06:32:30;100066.00;;;13.10;60.60
70521;BME280;58442;52.716;23.560;2023-04-25T06:34:33;100064.16;;;13.22;60.48
70521;BME280;58442;52.716;23.560;2023-04-25T06:36:41;100060.34;;;13.33;60.35
70521;BME280;58442;52.716;23.560;2023-04-25T06:38:43;100064.70;;;13.45;60.34
70521;BME280;58442;52.716;23.560;2023-04-25T06:40:44;100063.59;;;13.60;60.12
70521;BME280;58442;52.716;23.560;2023-04-25T06:42:46;100061.29;;;13.77;59.88
70521;BME280;58442;52.716;23.560;2023-04-25T06:44:56;100063.30;;;13.94;59.65
70521;BME280;58442;52.716;23.560;2023-04-25T06:46:57;100052.40;;;14.12;59.30
70521;BME280;58442;52.716;23.560;2023-04-25T06:49:00;100057.52;;;14.31;58.97
70521;BME280;58442;52.716;23.560;2023-04-25T06:51:02;100053.65;;;14.50;58.60
70521;BME280;58442;52.716;23.560;2023-04-25T06:53:10;100047.39;;;14.67;58.39
70521;BME280;58442;52.716;23.560;2023-04-25T06:55:12;100041.11;;;14.88;58.05
70521;BME280;58442;52.716;23.560;2023-04-25T06:57:14;100043.45;;;15.04;57.75
70521;BME280;58442;52.716;23.560;2023-04-25T06:59:15;100041.08;;;15.13;57.61
70521;BME280;58442;52.716;23.560;2023-04-25T07:01:25;100045.73;;;15.23;57.42
70521;BME280;58442;52.716;23.560;2023-04-25T07:03:27;100040.26;;;15.30;57.23
70521;BME280;58442;52.716;23.560;2023-04-25T07:05:28;100044.13;;;15.37;57.04
70521;BME280;58442;52.716;23.560;2023-04-25T07:07:30;100034.73;;;15.45;56.85
70521;BME280;58442;52.716;23.560;2023-04-25T07:09:40;100034.30;;;15.50;56.74
70521;BME280;58442;52.716;23.560;2023-04-25T07:11:42;100038.97;;;15.60;56.69
70521;BME280;58442;52.716;23.560;2023-04-25T07:13:44;100037.77;;;15.68;56.60
70521;BME280;58442;52.716;23.560;2023-04-25T07:15:46;100042.03;;;15.80;56.43
70521;BME280;58442;52.716;23.560;2023-04-25T07:17:55;100034.14;;;15.93;56.17
70521;BME280;58442;52.716;23.560;2023-04-25T07:19:57;100043.82;;;16.08;55.97
70521;BME280;58442;52.716;23.560;2023-04-25T07:21:58;100034.31;;;16.23;55.65
70521;BME280;58442;52.716;23.560;2023-04-25T07:24:00;100040.47;;;16.38;55.39
70521;BME280;58442;52.716;23.560;2023-04-25T07:26:10;100043.48;;;16.54;55.07
70521;BME280;58442;52.716;23.560;2023-04-25T07:28:12;100027.66;;;16.73;54.78
70521;BME280;58442;52.716;23.560;2023-04-25T07:30:14;100037.66;;;16.93;54.43
70521;BME280;58442;52.716;23.560;2023-04-25T07:32:15;100032.72;;;17.15;54.11
70521;BME280;58442;52.716;23.560;2023-04-25T07:34:24;100034.84;;;17.38;53.83
70521;BME280;58442;52.716;23.560;2023-04-25T07:36:26;100035.70;;;17.62;53.50
70521;BME280;58442;52.716;23.560;2023-04-25T07:38:28;100035.06;;;17.85;53.05
70521;BME280;58442;52.716;23.560;2023-04-25T07:40:29;100025.30;;;18.08;52.63
70521;BME280;58442;52.716;23.560;2023-04-25T07:42:39;100028.14;;;18.27;52.36
70521;BME280;58442;52.716;23.560;2023-04-25T07:44:41;100028.81;;;18.35;52.23
70521;BME280;58442;52.716;23.560;2023-04-25T07:46:44;100029.47;;;18.43;51.91
70521;BME280;58442;52.716;23.560;2023-04-25T07:48:46;100025.09;;;18.45;51.73
70521;BME280;58442;52.716;23.560;2023-04-25T07:50:54;100027.84;;;18.45;51.61
70521;BME280;58442;52.716;23.560;2023-04-25T07:52:57;100029.77;;;18.48;51.39
70521;BME280;58442;52.716;23.560;2023-04-25T07:54:58;100030.13;;;18.50;51.22
70521;BME280;58442;52.716;23.560;2023-04-25T07:57:01;100030.09;;;18.54;51.15
70521;BME280;58442;52.716;23.560;2023-04-25T07:59:10;100034.31;;;18.58;51.09
70521;BME280;58442;52.716;23.560;2023-04-25T08:01:12;100026.05;;;18.58;50.93
70521;BME280;58442;52.716;23.560;2023-04-25T08:03:14;100032.29;;;18.63;50.89
70521;BME280;58442;52.716;23.560;2023-04-25T08:05:16;100034.95;;;18.70;50.74
70521;BME280;58442;52.716;23.560;2023-04-25T08:07:24;100031.34;;;18.73;50.72
70521;BME280;58442;52.716;23.560;2023-04-25T08:09:26;100032.42;;;18.79;50.63
70521;BME280;58442;52.716;23.560;2023-04-25T08:11:28;100038.65;;;18.83;50.54
70521;BME280;58442;52.716;23.560;2023-04-25T08:13:30;100036.59;;;18.87;50.51
70521;BME280;58442;52.716;23.560;2023-04-25T08:15:39;100035.00;;;18.90;50.47
70521;BME280;58442;52.716;23.560;2023-04-25T08:17:41;100035.29;;;18.95;50.43
70521;BME280;58442;52.716;23.560;2023-04-25T08:19:45;100025.27;;;19.05;50.24
70521;BME280;58442;52.716;23.560;2023-04-25T08:21:47;100034.60;;;19.11;50.07
70521;BME280;58442;52.716;23.560;2023-04-25T08:23:53;100028.90;;;19.22;49.96
70521;BME280;58442;52.716;23.560;2023-04-25T08:25:56;100030.99;;;19.34;49.79
70521;BME280;58442;52.716;23.560;2023-04-25T08:27:57;100023.01;;;19.39;49.56
70521;BME280;58442;52.716;23.560;2023-04-25T08:30:04;100027.95;;;19.48;49.51
70521;BME280;58442;52.716;23.560;2023-04-25T08:32:08;100024.92;;;19.62;49.38
70521;BME280;58442;52.716;23.560;2023-04-25T08:34:10;100024.64;;;19.77;49.28
70521;BME280;58442;52.716;23.560;2023-04-25T08:36:12;100022.41;;;19.88;49.20
70521;BME280;58442;52.716;23.560;2023-04-25T08:38:13;100025.38;;;19.97;49.06
70521;BME280;58442;52.716;23.560;2023-04-25T08:40:23;100016.66;;;19.99;49.00
70521;BME280;58442;52.716;23.560;2023-04-25T08:42:31;100018.12;;;20.03;48.90
70521;BME280;58442;52.716;23.560;2023-04-25T08:44:36;100019.69;;;20.04;48.82
70521;BME280;58442;52.716;23.560;2023-04-25T08:46:40;100027.53;;;20.06;48.81
70521;BME280;58442;52.716;23.560;2023-04-25T08:48:45;100027.02;;;20.11;48.73
70521;BME280;58442;52.716;23.560;2023-04-25T08:50:52;100039.44;;;20.19;48.58
70521;BME280;58442;52.716;23.560;2023-04-25T08:52:54;100042.54;;;20.21;48.71
70521;BME280;58442;52.716;23.560;2023-04-25T08:54:57;100044.02;;;20.26;48.65
70521;BME280;58442;52.716;23.560;2023-04-25T08:57:02;100042.30;;;20.32;48.60
70521;BME280;58442;52.716;23.560;2023-04-25T08:59:05;100044.52;;;20.37;48.51
70521;BME280;58442;52.716;23.560;2023-04-25T09:01:09;100040.27;;;20.52;48.26
70521;BME280;58442;52.716;23.560;2023-04-25T09:03:12;100040.34;;;20.48;48.30
70521;BME280;58442;52.716;23.560;2023-04-25T09:05:14;100041.99;;;20.46;48.33
70521;BME280;58442;52.716;23.560;2023-04-25T09:07:16;100040.78;;;20.47;48.29
70521;BME280;58442;52.716;23.560;2023-04-25T09:09:23;100039.38;;;20.55;48.18
70521;BME280;58442;52.716;23.560;2023-04-25T09:11:24;100043.85;;;20.65;48.09
70521;BME280;58442;52.716;23.560;2023-04-25T09:13:28;100047.23;;;20.73;48.06
70521;BME280;58442;52.716;23.560;2023-04-25T09:15:32;100042.63;;;20.83;47.97
70521;BME280;58442;52.716;23.560;2023-04-25T09:17:34;100047.35;;;20.98;47.72
70521;BME280;58442;52.716;23.560;2023-04-25T09:19:40;100038.65;;;21.00;47.69
70521;BME280;58442;52.716;23.560;2023-04-25T09:21:43;100044.20;;;21.13;47.48
70521;BME280;58442;52.716;23.560;2023-04-25T09:23:47;100043.48;;;21.25;47.25
70521;BME280;58442;52.716;23.560;2023-04-25T09:25:50;100048.23;;;21.24;47.34
70521;BME280;58442;52.716;23.560;2023-04-25T09:27:53;100044.70;;;21.24;47.29
70521;BME280;58442;52.716;23.560;2023-04-25T09:29:58;100036.56;;;21.33;47.11
70521;BME280;58442;52.716;23.560;2023-04-25T09:34:17;100038.99;;;21.31;46.93
70521;BME280;58442;52.716;23.560;2023-04-25T09:36:23;100030.87;;;21.24;47.00
70521;BME280;58442;52.716;23.560;2023-04-25T09:38:30;100043.79;;;21.14;47.12
70521;BME280;58442;52.716;23.560;2023-04-25T09:40:43;100032.05;;;21.10;47.17
70521;BME280;58442;52.716;23.560;2023-04-25T09:42:45;100034.41;;;21.24;46.96
70521;BME280;58442;52.716;23.560;2023-04-25T09:44:47;100034.80;;;21.10;47.14
70521;BME280;58442;52.716;23.560;2023-04-25T09:46:49;100039.49;;;20.97;47.36
70521;BME280;58442;52.716;23.560;2023-04-25T09:48:57;100036.93;;;20.90;47.38
70521;BME280;58442;52.716;23.560;2023-04-25T09:51:09;100035.88;;;21.00;47.16
70521;BME280;58442;52.716;23.560;2023-04-25T09:53:11;100030.82;;;21.11;47.09
70521;BME280;58442;52.716;23.560;2023-04-25T09:55:13;100033.31;;;21.22;47.01
70521;BME280;58442;52.716;23.560;2023-04-25T09:57:17;100027.41;;;21.36;46.81
70521;BME280;58442;52.716;23.560;2023-04-25T09:59:22;100026.39;;;21.30;46.96
70521;BME280;58442;52.716;23.560;2023-04-25T10:01:25;100033.72;;;21.20;47.02
70521;BME280;58442;52.716;23.560;2023-04-25T10:03:33;100026.59;;;21.07;47.13
70521;BME280;58442;52.716;23.560;2023-04-25T10:05:35;100027.09;;;20.89;47.36
70521;BME280;58442;52.716;23.560;2023-04-25T10:07:39;100026.10;;;20.66;47.63
70521;BME280;58442;52.716;23.560;2023-04-25T10:09:43;100031.73;;;20.46;47.96
70521;BME280;58442;52.716;23.560;2023-04-25T10:11:47;100023.84;;;20.29;48.23
70521;BME280;58442;52.716;23.560;2023-04-25T10:13:50;100025.04;;;20.11;48.49
70521;BME280;58442;52.716;23.560;2023-04-25T10:15:52;100019.85;;;19.97;48.66
70521;BME280;58442;52.716;23.560;2023-04-25T10:17:56;100020.95;;;19.83;48.82
70521;BME280;58442;52.716;23.560;2023-04-25T10:19:58;100020.05;;;19.70;49.00
70521;BME280;58442;52.716;23.560;2023-04-25T10:22:11;100020.27;;;19.59;49.18
70521;BME280;58442;52.716;23.560;2023-04-25T10:24:22;100027.45;;;19.53;49.27
70521;BME280;58442;52.716;23.560;2023-04-25T10:26:24;100024.94;;;19.43;49.42
70521;BME280;58442;52.716;23.560;2023-04-25T10:28:26;100021.61;;;19.31;49.57
70521;BME280;58442;52.716;23.560;2023-04-25T10:30:29;100026.13;;;19.22;49.81
70521;BME280;58442;52.716;23.560;2023-04-25T10:32:37;100020.48;;;19.09;49.92
70521;BME280;58442;52.716;23.560;2023-04-25T10:34:44;100025.48;;;18.94;50.44
70521;BME280;58442;52.716;23.560;2023-04-25T10:36:51;100025.35;;;18.78;50.84
70521;BME280;58442;52.716;23.560;2023-04-25T10:39:06;100029.78;;;18.72;51.19
70521;BME280;58442;52.716;23.560;2023-04-25T10:41:11;100020.20;;;18.80;51.15
70521;BME280;58442;52.716;23.560;2023-04-25T10:47:58;100024.42;;;19.48;50.50